createdAt,value
2017-09-10T00:00:07.795Z,6.50
2017-09-10T00:02:35.318Z,7.17
2017-09-10T00:05:02.826Z,6.60
2017-09-10T00:07:30.341Z,6.33
2017-09-10T00:09:57.852Z,6.70
2017-09-10T00:12:25.364Z,6.23
2017-09-10T00:14:52.896Z,6.40
2017-09-10T00:17:20.402Z,7.40
2017-09-10T00:19:47.897Z,5.70
2017-09-10T00:22:15.442Z,6.10
2017-09-10T00:24:42.943Z,6.53
2017-09-10T00:27:10.455Z,6.63
2017-09-10T00:29:37.965Z,6.80
2017-09-10T00:32:05.462Z,7.07
2017-09-10T00:34:32.980Z,5.83
2017-09-10T00:37:00.498Z,6.13
2017-09-10T00:39:27.994Z,5.10
2017-09-10T00:41:55.507Z,6.07
2017-09-10T00:44:23.195Z,5.73
2017-09-10T00:46:50.727Z,5.90
2017-09-10T00:49:18.258Z,5.90
2017-09-10T00:51:45.767Z,5.93
2017-09-10T00:54:13.379Z,6.17
2017-09-10T00:56:40.891Z,6.20
2017-09-10T00:59:08.445Z,5.50
2017-09-10T01:01:35.955Z,4.63
2017-09-10T01:04:03.510Z,6.00
2017-09-10T01:06:31.015Z,4.80
2017-09-10T01:08:58.535Z,5.30
2017-09-10T01:11:26.048Z,4.30
2017-09-10T01:13:53.574Z,4.60
2017-09-10T01:16:21.103Z,4.63
2017-09-10T01:18:48.615Z,4.30
2017-09-10T01:21:16.120Z,4.10
2017-09-10T01:23:43.634Z,4.57
2017-09-10T01:26:11.152Z,4.70
2017-09-10T01:28:38.670Z,5.43
2017-09-10T01:31:06.197Z,4.20
2017-09-10T01:33:33.718Z,4.40
2017-09-10T01:36:01.232Z,4.23
2017-09-10T01:38:28.759Z,3.57
2017-09-10T01:40:56.274Z,3.40
2017-09-10T01:43:23.785Z,3.77
2017-09-10T01:45:51.297Z,4.13
2017-09-10T01:48:18.800Z,4.50
2017-09-10T01:50:46.314Z,5.27
2017-09-10T01:53:13.819Z,4.37
2017-09-10T01:55:41.381Z,4.40
2017-09-10T01:58:08.896Z,4.70
2017-09-10T02:00:36.422Z,4.30
2017-09-10T02:03:03.936Z,4.97
2017-09-10T02:05:31.454Z,4.53
2017-09-10T02:07:58.959Z,4.20
2017-09-10T02:10:26.469Z,5.70
2017-09-10T02:12:53.989Z,4.20
2017-09-10T02:15:21.522Z,4.60
2017-09-10T02:17:49.036Z,4.27
2017-09-10T02:20:16.543Z,5.20
2017-09-10T02:22:44.064Z,4.60
2017-09-10T02:25:11.582Z,4.20
2017-09-10T02:27:39.095Z,3.40
2017-09-10T02:30:06.604Z,4.80
2017-09-10T02:32:34.116Z,5.20
2017-09-10T02:35:01.624Z,4.70
2017-09-10T02:37:29.146Z,4.10
2017-09-10T02:39:56.690Z,4.30
2017-09-10T02:42:24.197Z,4.57
2017-09-10T02:44:51.731Z,4.13
2017-09-10T02:47:19.244Z,3.80
2017-09-10T02:49:46.767Z,5.40
2017-09-10T02:52:14.270Z,4.17
2017-09-10T02:54:41.869Z,4.97
2017-09-10T02:57:09.393Z,4.40
2017-09-10T02:59:36.907Z,5.43
2017-09-10T03:02:04.415Z,5.10
2017-09-10T03:04:31.932Z,3.97
2017-09-10T03:06:59.431Z,3.73
2017-09-10T03:09:26.934Z,4.50
2017-09-10T03:11:54.477Z,3.93
2017-09-10T03:14:22.013Z,4.10
2017-09-10T03:16:49.519Z,3.47
2017-09-10T03:19:17.049Z,3.90
2017-09-10T03:21:44.586Z,3.73
2017-09-10T03:24:12.116Z,4.03
2017-09-10T03:26:39.642Z,4.40
2017-09-10T03:29:07.151Z,4.00
2017-09-10T03:31:34.658Z,4.30
2017-09-10T03:34:02.164Z,4.20
2017-09-10T03:36:29.674Z,4.00
2017-09-10T03:38:57.171Z,3.73
2017-09-10T03:41:24.712Z,3.13
2017-09-10T03:43:52.236Z,3.03
2017-09-10T03:46:19.735Z,3.23
2017-09-10T03:48:47.240Z,2.97
2017-09-10T03:51:14.752Z,4.30
2017-09-10T03:53:42.270Z,5.37
2017-09-10T03:56:09.796Z,4.43
2017-09-10T03:58:37.294Z,4.80
2017-09-10T04:01:04.812Z,4.40
2017-09-10T04:03:32.327Z,4.20
2017-09-10T04:05:59.837Z,3.90
2017-09-10T04:08:27.342Z,4.00
2017-09-10T04:10:54.884Z,3.80
2017-09-10T04:13:22.392Z,3.53
2017-09-10T04:15:49.915Z,4.40
2017-09-10T04:18:17.425Z,3.67
2017-09-10T04:20:44.947Z,4.00
2017-09-10T04:23:12.458Z,4.13
2017-09-10T04:25:39.977Z,3.30
2017-09-10T04:28:07.490Z,2.80
2017-09-10T04:30:35.005Z,3.27
2017-09-10T04:33:02.512Z,3.37
2017-09-10T04:35:30.035Z,2.90
2017-09-10T04:37:57.540Z,3.37
2017-09-10T04:40:25.077Z,3.07
2017-09-10T04:42:52.624Z,3.00
2017-09-10T04:45:20.124Z,2.83
2017-09-10T04:47:47.628Z,3.20
2017-09-10T04:50:15.554Z,2.50
2017-09-10T04:52:43.216Z,3.50
2017-09-10T04:55:10.731Z,3.40
2017-09-10T04:57:38.251Z,3.37
2017-09-10T05:00:05.777Z,3.10
2017-09-10T05:02:33.312Z,3.50
2017-09-10T05:05:00.820Z,3.30
2017-09-10T05:07:28.405Z,3.10
2017-09-10T05:09:55.916Z,3.47
2017-09-10T05:12:23.429Z,3.10
2017-09-10T05:14:50.948Z,3.50
2017-09-10T05:17:18.637Z,3.60
2017-09-10T05:19:46.151Z,3.10
2017-09-10T05:22:13.680Z,3.50
2017-09-10T05:24:41.203Z,2.80
2017-09-10T05:27:08.720Z,2.80
2017-09-10T05:29:36.242Z,3.10
2017-09-10T05:32:03.763Z,2.93
2017-09-10T05:34:31.284Z,3.10
2017-09-10T05:36:58.788Z,2.90
2017-09-10T05:39:26.310Z,3.47
2017-09-10T05:41:53.826Z,3.17
2017-09-10T05:44:21.336Z,2.60
2017-09-10T05:46:48.838Z,2.93
2017-09-10T05:49:16.339Z,2.87
2017-09-10T05:51:43.861Z,2.77
2017-09-10T05:54:11.390Z,2.80
2017-09-10T05:56:38.902Z,2.80
2017-09-10T05:59:06.426Z,3.20
2017-09-10T06:01:33.941Z,2.50
2017-09-10T06:04:01.481Z,2.70
2017-09-10T06:06:28.992Z,3.23
2017-09-10T06:08:56.493Z,2.60
2017-09-10T06:11:23.997Z,3.00
2017-09-10T06:13:51.507Z,3.60
2017-09-10T06:16:19.043Z,3.10
2017-09-10T06:18:46.538Z,2.60
2017-09-10T06:21:14.065Z,3.00
2017-09-10T06:23:41.574Z,3.07
2017-09-10T06:26:09.077Z,3.10
2017-09-10T06:28:36.579Z,3.53
2017-09-10T06:31:04.091Z,2.77
2017-09-10T06:33:31.622Z,2.83
2017-09-10T06:35:59.160Z,2.37
2017-09-10T06:38:26.687Z,2.73
2017-09-10T06:40:54.192Z,1.90
2017-09-10T06:43:21.699Z,2.40
2017-09-10T06:45:49.326Z,3.30
2017-09-10T06:48:16.928Z,3.53
2017-09-10T06:50:44.469Z,2.47
2017-09-10T06:53:11.971Z,2.47
2017-09-10T06:55:39.483Z,3.13
2017-09-10T06:58:07.002Z,2.90
2017-09-10T07:00:34.515Z,2.20
2017-09-10T07:03:02.033Z,2.10
2017-09-10T07:05:29.534Z,1.93
2017-09-10T07:07:57.037Z,2.20
2017-09-10T07:10:24.564Z,2.27
2017-09-10T07:12:52.080Z,2.47
2017-09-10T07:15:19.606Z,4.13
2017-09-10T07:17:47.121Z,4.23
2017-09-10T07:20:14.618Z,2.20
2017-09-10T07:22:42.141Z,2.80
2017-09-10T07:25:09.671Z,2.33
2017-09-10T07:27:37.181Z,1.90
2017-09-10T07:30:04.727Z,2.50
2017-09-10T07:32:32.247Z,2.80
2017-09-10T07:34:59.758Z,2.83
2017-09-10T07:37:27.275Z,2.37
2017-09-10T07:39:54.794Z,1.67
2017-09-10T07:42:22.315Z,2.10
2017-09-10T07:44:49.832Z,1.40
2017-09-10T07:47:17.336Z,1.30
2017-09-10T07:49:44.856Z,1.47
2017-09-10T07:52:12.420Z,1.77
2017-09-10T07:54:39.929Z,1.50
2017-09-10T07:57:07.436Z,3.17
2017-09-10T07:59:34.940Z,1.43
2017-09-10T08:02:02.455Z,0.93
2017-09-10T08:04:29.965Z,1.53
2017-09-10T08:06:57.486Z,1.17
2017-09-10T08:09:24.994Z,1.43
2017-09-10T08:11:52.520Z,1.20
2017-09-10T08:14:20.047Z,1.50
2017-09-10T08:16:47.555Z,1.60
2017-09-10T08:19:15.086Z,1.47
2017-09-10T08:21:42.600Z,1.47
2017-09-10T08:24:10.144Z,1.40
2017-09-10T08:26:37.648Z,1.57
2017-09-10T08:29:05.213Z,1.70
2017-09-10T08:31:32.732Z,1.80
2017-09-10T08:34:00.251Z,1.73
2017-09-10T08:36:27.772Z,1.63
2017-09-10T08:38:55.303Z,1.57
2017-09-10T08:41:22.812Z,1.90
2017-09-10T08:43:50.343Z,1.40
2017-09-10T08:46:17.867Z,1.20
2017-09-10T08:48:45.938Z,1.80
2017-09-10T08:51:13.454Z,1.30
2017-09-10T08:53:40.968Z,1.00
2017-09-10T08:56:08.479Z,1.00
2017-09-10T08:58:35.990Z,1.20
2017-09-10T09:01:03.503Z,1.40
2017-09-10T09:03:31.033Z,1.20
2017-09-10T09:05:58.599Z,1.77
2017-09-10T09:08:26.111Z,0.97
2017-09-10T09:10:53.632Z,1.13
2017-09-10T09:13:21.152Z,1.53
2017-09-10T09:15:48.685Z,1.70
2017-09-10T09:18:16.212Z,1.40
2017-09-10T09:20:43.755Z,1.20
2017-09-10T09:23:11.328Z,1.23
2017-09-10T09:25:38.856Z,1.33
2017-09-10T09:28:06.402Z,1.40
2017-09-10T09:30:33.916Z,1.30
2017-09-10T09:33:01.448Z,1.30
2017-09-10T09:35:28.974Z,2.87
2017-09-10T09:37:56.524Z,1.10
2017-09-10T09:40:24.071Z,1.40
2017-09-10T09:42:51.588Z,1.13
2017-09-10T09:45:19.129Z,1.00
2017-09-10T09:47:46.663Z,1.87
2017-09-10T09:50:14.177Z,1.30
2017-09-10T09:52:41.696Z,1.10
2017-09-10T09:55:09.223Z,1.53
2017-09-10T09:57:36.804Z,1.37
2017-09-10T10:00:04.311Z,1.37
2017-09-10T10:02:31.835Z,1.33
2017-09-10T10:04:59.370Z,1.20
2017-09-10T10:07:26.879Z,1.00
2017-09-10T10:09:54.393Z,1.07
2017-09-10T10:12:21.894Z,0.93
2017-09-10T10:14:49.415Z,1.20
2017-09-10T10:17:16.943Z,1.20
2017-09-10T10:19:44.458Z,1.10
2017-09-10T10:22:11.972Z,1.30
2017-09-10T10:24:39.512Z,1.23
2017-09-10T10:27:07.022Z,0.93
2017-09-10T10:29:34.539Z,0.87
2017-09-10T10:32:02.071Z,1.00
2017-09-10T10:34:30.229Z,0.80
2017-09-10T10:36:57.768Z,1.30
2017-09-10T10:39:25.315Z,1.43
2017-09-10T10:41:52.822Z,1.50
2017-09-10T10:44:20.345Z,1.23
2017-09-10T10:46:47.872Z,1.30
2017-09-10T10:49:15.392Z,1.17
2017-09-10T10:51:42.904Z,1.20
2017-09-10T10:54:10.417Z,1.10
2017-09-10T10:56:37.931Z,0.90
2017-09-10T10:59:05.452Z,1.03
2017-09-10T11:01:32.979Z,1.10
2017-09-10T11:04:00.525Z,0.90
2017-09-10T11:06:28.058Z,1.10
2017-09-10T11:08:55.564Z,0.80
2017-09-10T11:11:23.101Z,1.17
2017-09-10T11:13:50.601Z,0.80
2017-09-10T11:16:18.124Z,1.03
2017-09-10T11:18:45.652Z,0.60
2017-09-10T11:21:13.214Z,0.90
2017-09-10T11:23:40.739Z,0.70
2017-09-10T11:26:08.263Z,0.60
2017-09-10T11:28:35.873Z,0.70
2017-09-10T11:31:03.384Z,0.83
2017-09-10T11:33:30.895Z,0.90
2017-09-10T11:35:58.398Z,0.90
2017-09-10T11:38:26.785Z,0.80
2017-09-10T11:40:54.298Z,1.23
2017-09-10T11:43:21.806Z,0.80
2017-09-10T11:45:49.312Z,0.70
2017-09-10T11:48:16.951Z,0.60
2017-09-10T11:50:44.585Z,0.80
2017-09-10T11:53:12.115Z,0.80
2017-09-10T11:55:39.615Z,1.00
2017-09-10T11:58:07.135Z,0.70
2017-09-10T12:00:34.764Z,0.83
2017-09-10T12:03:02.318Z,0.67
2017-09-10T12:05:29.826Z,0.60
2017-09-10T12:07:57.403Z,0.77
2017-09-10T12:10:24.898Z,0.80
2017-09-10T12:12:52.427Z,0.53
2017-09-10T12:15:19.938Z,0.90
2017-09-10T12:17:47.482Z,0.80
2017-09-10T12:20:15.020Z,0.90
2017-09-10T12:22:42.573Z,0.80
2017-09-10T12:25:10.101Z,1.07
2017-09-10T12:27:37.622Z,0.70
2017-09-10T12:30:05.139Z,0.97
2017-09-10T12:32:32.664Z,0.63
2017-09-10T12:35:00.191Z,0.60
2017-09-10T12:37:27.717Z,0.63
2017-09-10T12:39:55.215Z,0.87
2017-09-10T12:42:22.727Z,0.60
2017-09-10T12:44:50.262Z,0.67
2017-09-10T12:47:17.793Z,0.50
2017-09-10T12:49:45.367Z,0.73
2017-09-10T12:52:12.907Z,0.50
2017-09-10T12:54:40.431Z,0.53
2017-09-10T12:57:07.937Z,0.70
2017-09-10T12:59:35.472Z,0.50
2017-09-10T13:02:03.040Z,0.70
2017-09-10T13:04:30.567Z,0.80
2017-09-10T13:06:58.067Z,1.00
2017-09-10T13:09:25.596Z,0.60
2017-09-10T13:11:53.122Z,1.00
2017-09-10T13:14:20.632Z,0.63
2017-09-10T13:16:48.161Z,1.00
2017-09-10T13:19:15.727Z,0.60
2017-09-10T13:21:43.244Z,0.80
2017-09-10T13:24:10.881Z,0.77
2017-09-10T13:26:38.395Z,0.90
2017-09-10T13:29:05.911Z,0.80
2017-09-10T13:31:33.416Z,0.80
2017-09-10T13:34:00.956Z,1.13
2017-09-10T13:36:28.462Z,1.10
2017-09-10T13:38:55.968Z,1.03
2017-09-10T13:41:23.489Z,0.70
2017-09-10T13:43:51.012Z,0.90
2017-09-10T13:46:18.530Z,0.70
2017-09-10T13:48:46.041Z,0.70
2017-09-10T13:51:13.579Z,0.83
2017-09-10T13:53:41.091Z,1.00
2017-09-10T13:56:08.679Z,0.90
2017-09-10T13:58:36.200Z,0.80
2017-09-10T14:01:03.726Z,1.03
2017-09-10T14:03:31.262Z,0.90
2017-09-10T14:05:58.781Z,1.40
2017-09-10T14:08:26.375Z,0.80
2017-09-10T14:10:53.928Z,0.80
2017-09-10T14:13:21.550Z,1.00
2017-09-10T14:15:49.071Z,0.90
2017-09-10T14:18:16.619Z,0.70
2017-09-10T14:20:44.152Z,1.00
2017-09-10T14:23:11.695Z,0.90
2017-09-10T14:25:39.212Z,1.33
2017-09-10T14:28:06.796Z,1.00
2017-09-10T14:30:34.324Z,1.40
2017-09-10T14:33:01.836Z,0.90
2017-09-10T14:35:29.369Z,1.20
2017-09-10T14:37:56.886Z,1.10
2017-09-10T14:40:24.436Z,1.00
2017-09-10T14:42:51.943Z,1.07
2017-09-10T14:45:19.464Z,1.23
2017-09-10T14:47:46.964Z,1.23
2017-09-10T14:50:14.487Z,1.70
2017-09-10T14:52:42.054Z,1.20
2017-09-10T14:55:09.579Z,1.43
2017-09-10T14:57:37.142Z,1.10
2017-09-10T15:00:04.640Z,1.00
2017-09-10T15:02:32.159Z,1.70
2017-09-10T15:04:59.688Z,0.90
2017-09-10T15:07:27.260Z,1.00
2017-09-10T15:09:54.764Z,1.17
2017-09-10T15:12:22.347Z,1.20
2017-09-10T15:14:49.867Z,1.23
2017-09-10T15:17:17.383Z,0.97
2017-09-10T15:19:44.898Z,1.17
2017-09-10T15:22:12.421Z,1.30
2017-09-10T15:24:39.952Z,1.43
2017-09-10T15:27:07.471Z,1.13
2017-09-10T15:29:35.044Z,1.37
2017-09-10T15:32:02.547Z,1.23
2017-09-10T15:34:30.058Z,1.40
2017-09-10T15:36:57.563Z,1.00
2017-09-10T15:39:25.076Z,1.10
2017-09-10T15:41:52.595Z,1.60
2017-09-10T15:44:21.940Z,1.30
2017-09-10T15:46:49.447Z,1.20
2017-09-10T15:49:17.057Z,1.17
2017-09-10T15:51:44.562Z,1.17
2017-09-10T15:54:12.072Z,0.87
2017-09-10T15:56:39.608Z,1.17
2017-09-10T15:59:07.132Z,1.50
2017-09-10T16:01:34.683Z,1.10
2017-09-10T16:04:02.211Z,1.53
2017-09-10T16:06:29.716Z,1.30
2017-09-10T16:08:57.226Z,1.17
2017-09-10T16:11:24.728Z,1.00
2017-09-10T16:13:52.223Z,1.20
2017-09-10T16:16:19.723Z,1.40
2017-09-10T16:18:47.249Z,1.00
2017-09-10T16:21:14.770Z,1.27
2017-09-10T16:23:42.334Z,1.30
2017-09-10T16:26:09.871Z,1.00
2017-09-10T16:28:37.403Z,1.33
2017-09-10T16:31:04.936Z,0.87
2017-09-10T16:33:32.471Z,1.33
2017-09-10T16:35:59.990Z,1.77
2017-09-10T16:38:27.621Z,1.10
2017-09-10T16:40:55.136Z,1.00
2017-09-10T16:43:22.666Z,0.83
2017-09-10T16:45:50.188Z,1.30
2017-09-10T16:48:17.703Z,1.13
2017-09-10T16:50:45.229Z,0.93
2017-09-10T16:53:12.779Z,1.03
2017-09-10T16:55:40.429Z,0.90
2017-09-10T16:58:07.941Z,1.00
2017-09-10T17:00:35.653Z,1.47
2017-09-10T17:03:03.155Z,0.87
2017-09-10T17:05:30.690Z,1.17
2017-09-10T17:07:58.204Z,0.90
2017-09-10T17:10:25.796Z,1.30
2017-09-10T17:12:53.309Z,1.13
2017-09-10T17:15:20.852Z,1.30
2017-09-10T17:17:48.356Z,1.10
2017-09-10T17:20:15.875Z,1.10
2017-09-10T17:22:43.383Z,1.40
2017-09-10T17:25:10.908Z,1.47
2017-09-10T17:27:38.431Z,1.90
2017-09-10T17:30:05.968Z,1.20
2017-09-10T17:32:33.475Z,1.27
2017-09-10T17:35:01.015Z,1.13
2017-09-10T17:37:28.622Z,1.90
2017-09-10T17:39:56.203Z,1.20
2017-09-10T17:42:23.747Z,1.50
2017-09-10T17:44:51.263Z,1.80
2017-09-10T17:47:18.809Z,1.30
2017-09-10T17:49:46.460Z,1.60
2017-09-10T17:52:13.975Z,1.50
2017-09-10T17:54:41.491Z,1.50
2017-09-10T17:57:09.041Z,1.40
2017-09-10T17:59:36.589Z,1.47
2017-09-10T18:02:04.147Z,1.67
2017-09-10T18:04:31.694Z,1.40
2017-09-10T18:06:59.241Z,1.60
2017-09-10T18:09:26.757Z,1.20
2017-09-10T18:11:54.287Z,1.30
2017-09-10T18:14:21.811Z,1.43
2017-09-10T18:16:49.316Z,1.17
2017-09-10T18:19:16.833Z,1.80
2017-09-10T18:21:44.339Z,1.80
2017-09-10T18:24:11.867Z,1.57
2017-09-10T18:26:39.368Z,1.57
2017-09-10T18:29:06.888Z,1.63
2017-09-10T18:31:34.416Z,1.50
2017-09-10T18:34:01.927Z,1.83
2017-09-10T18:36:29.583Z,1.80
2017-09-10T18:38:57.130Z,1.70
2017-09-10T18:41:24.659Z,2.40
2017-09-10T18:43:52.158Z,1.80
2017-09-10T18:46:19.704Z,1.37
2017-09-10T18:48:47.230Z,1.70
2017-09-10T18:51:14.765Z,1.70
2017-09-10T18:53:42.313Z,1.70
2017-09-10T18:56:09.866Z,2.07
2017-09-10T18:58:37.372Z,1.57
2017-09-10T19:01:04.887Z,1.87
2017-09-10T19:03:32.389Z,1.80
2017-09-10T19:05:59.895Z,2.00
2017-09-10T19:08:27.412Z,2.17
2017-09-10T19:10:54.963Z,2.57
2017-09-10T19:13:22.519Z,2.63
2017-09-10T19:15:50.061Z,3.03
2017-09-10T19:18:17.579Z,3.33
2017-09-10T19:20:45.219Z,2.90
2017-09-10T19:23:12.730Z,2.40
2017-09-10T19:25:40.231Z,2.23
2017-09-10T19:28:07.748Z,2.30
2017-09-10T19:30:35.283Z,2.23
2017-09-10T19:33:02.792Z,2.50
2017-09-10T19:35:30.340Z,2.30
2017-09-10T19:37:57.979Z,2.40
2017-09-10T19:40:25.509Z,1.87
2017-09-10T19:42:53.028Z,2.40
2017-09-10T19:45:20.564Z,2.30
2017-09-10T19:47:48.098Z,2.77
2017-09-10T19:50:15.657Z,2.67
2017-09-10T19:52:43.365Z,2.30
2017-09-10T19:55:10.876Z,2.20
2017-09-10T19:57:38.449Z,3.13
2017-09-10T20:00:05.963Z,2.30
2017-09-10T20:02:33.572Z,2.40
2017-09-10T20:05:01.096Z,2.60
2017-09-10T20:07:28.616Z,2.37
2017-09-10T20:09:56.793Z,2.40
2017-09-10T20:12:24.316Z,1.93
2017-09-10T20:14:51.831Z,2.20
2017-09-10T20:17:19.382Z,1.90
2017-09-10T20:19:46.915Z,2.50
2017-09-10T20:22:14.554Z,2.10
2017-09-10T20:24:42.067Z,2.43
2017-09-10T20:27:09.591Z,2.50
2017-09-10T20:29:37.137Z,2.30
2017-09-10T20:32:04.653Z,2.63
2017-09-10T20:34:32.168Z,2.00
2017-09-10T20:36:59.693Z,3.17
2017-09-10T20:39:27.214Z,2.70
2017-09-10T20:41:54.720Z,2.00
2017-09-10T20:44:22.291Z,3.03
2017-09-10T20:46:49.815Z,2.90
2017-09-10T20:49:17.408Z,2.07
2017-09-10T20:51:44.921Z,2.80
2017-09-10T20:54:12.468Z,2.50
2017-09-10T20:56:40.006Z,2.27
2017-09-10T20:59:07.557Z,2.50
2017-09-10T21:01:35.100Z,2.60
2017-09-10T21:04:02.649Z,2.17
2017-09-10T21:06:30.199Z,2.13
2017-09-10T21:08:57.730Z,2.30
2017-09-10T21:11:25.239Z,2.60
2017-09-10T21:13:52.780Z,2.47
2017-09-10T21:16:20.288Z,2.87
2017-09-10T21:18:47.796Z,3.10
2017-09-10T21:21:15.304Z,2.70
2017-09-10T21:23:42.909Z,2.97
2017-09-10T21:26:10.410Z,3.00
2017-09-10T21:28:38.024Z,3.13
2017-09-10T21:31:05.585Z,3.17
2017-09-10T21:33:33.084Z,3.57
2017-09-10T21:36:00.588Z,2.80
2017-09-10T21:38:28.123Z,3.20
2017-09-10T21:40:55.660Z,3.37
2017-09-10T21:43:23.199Z,3.50
2017-09-10T21:45:50.707Z,3.63
2017-09-10T21:48:18.218Z,3.50
2017-09-10T21:50:45.722Z,4.43
2017-09-10T21:53:13.239Z,3.83
2017-09-10T21:55:40.742Z,4.20
2017-09-10T21:58:08.321Z,4.30
2017-09-10T22:00:35.829Z,4.30
2017-09-10T22:03:03.356Z,3.87
2017-09-10T22:05:30.871Z,4.10
2017-09-10T22:07:58.389Z,3.43
2017-09-10T22:10:25.905Z,3.70
2017-09-10T22:12:53.411Z,3.47
2017-09-10T22:15:21.015Z,3.30
2017-09-10T22:17:48.587Z,3.13
2017-09-10T22:20:16.087Z,3.00
2017-09-10T22:22:43.703Z,3.40
2017-09-10T22:25:11.200Z,2.80
2017-09-10T22:27:38.718Z,3.00
2017-09-10T22:30:06.276Z,2.90
2017-09-10T22:32:34.111Z,3.57
2017-09-10T22:35:01.635Z,3.13
2017-09-10T22:37:29.136Z,3.30
2017-09-10T22:39:56.900Z,3.70
2017-09-10T22:42:24.403Z,3.50
2017-09-10T22:44:51.899Z,3.47
2017-09-10T22:47:19.402Z,2.97
2017-09-10T22:49:46.930Z,3.03
2017-09-10T22:52:14.451Z,2.80
2017-09-10T22:54:41.954Z,3.50
2017-09-10T22:57:09.517Z,3.20
2017-09-10T22:59:37.022Z,3.20
2017-09-10T23:02:04.518Z,2.77
2017-09-10T23:04:32.016Z,3.40
2017-09-10T23:06:59.524Z,3.50
2017-09-10T23:09:29.847Z,3.07
2017-09-10T23:11:57.351Z,3.03
2017-09-10T23:14:24.862Z,3.73
2017-09-10T23:16:52.396Z,3.43
2017-09-10T23:19:19.904Z,3.47
2017-09-10T23:21:47.424Z,3.10
2017-09-10T23:24:14.948Z,3.70
2017-09-10T23:26:42.468Z,3.00
2017-09-10T23:29:09.976Z,3.00
2017-09-10T23:31:37.481Z,2.80
2017-09-10T23:34:05.005Z,2.70
2017-09-10T23:36:32.499Z,3.33
2017-09-10T23:38:59.997Z,3.13
2017-09-10T23:41:27.505Z,2.40
2017-09-10T23:43:55.010Z,2.97
2017-09-10T23:46:22.511Z,3.30
2017-09-10T23:48:50.006Z,2.70
2017-09-10T23:51:17.503Z,3.13
2017-09-10T23:53:45.024Z,3.17
2017-09-10T23:56:12.524Z,2.80
2017-09-10T23:58:40.023Z,3.83
